Saglek Bay, Canada
Current Conditions -  °F | °C
As of 6:00 PM on Wednesday 22 Oct 2014 (Local Time) from CYDP Reporting Station
Overcast Overcast  
Wind Chill: 28°   Ceiling: 12000
Heat Index: 37°   Visibility: 15mi
Dew Point: 23°   Wind: 16mph
Humidity: 56%   Direction: 260°W
Pressure: 30.15"   Gusts: 29mph
Location:  58.49°N, 62.59°W
Report Text: CYDP 222100Z 26014G25KT 15SM BKN120 OVC210 03/M05 A3015 RMKAC6CI0 SLP210
Loading
Personal Weather Stations






























Interactive Weather Map
Tropical Storm Tracking
New forecast layout! Learn more

10-Day Weather Forecast

Advertisements
Track Severe Weather on mobile